vendredi 14 septembre 2018

Vous pouvez trouver Le classement original sur : www.otopservices.be  
 
JOUFGING - OUFFET
DISTANCE : 3.77 km
vendredi 14 septembre 2018
 
Place dos NOM Catégorie Pl/cat temps temps/km Vitesse
01:00:00              
1 2953 GUILLAUME BOINEM ESPOIR H 1 00:17:25 04:37 13.00
2 2954 THIERRY BOINEM VÉTÉRAN 2 1 00:20:37 05:28 10.98
3 2508 LUC PIGNOLET VETERAN 3 1 00:21:04 05:35 10.75
4 2525 JEAN DUBOIS ESPOIR H 2 00:21:56 05:49 10.32
5 2505 CHARLES PIRLOT ESPOIR H 3 00:24:28 06:29 9.25
6 2553 LENNY ROUSSEAUX ESPOIR H 4 00:24:34 06:31 9.22
7 2541 LUCAS LOMBARDO ESPOIR H 5 00:24:56 06:36 9.08
8 2523 CLARA VIOLA ESPOIR D 1 00:25:22 06:43 8.93
9 2522 ARNAUD OCTAVE SENIOR H 1 00:25:24 06:44 8.91
10 2528 ALAIN HEINEN VETERAN 1 1 00:25:25 06:44 8.91
11 2531 SIMON KALBUSCH SENIOR H 2 00:25:41 06:48 8.82
12 2555 CHLOE HENRY ESPOIR D 2 00:26:07 06:55 8.67
13 2281 MARIE LEGROS AINÉE 1 1 00:26:49 07:06 8.44
14 2552 ODILE HALLEUX ESPOIR D 3 00:26:56 07:08 8.41
15 2509 ISABELLE ROBIN SENIOR D 1 00:27:09 07:12 8.34
16 2527 ISABELLE CUSTERS AINÉE 1 2 00:27:34 07:18 8.21
17 2519 LEA BURON ESPOIR D 4 00:27:49 07:22 8.14
18 2515 NICOLAS BURON SENIOR H 3 00:27:49 07:22 8.14
19 2542 XAVIER PRAILLET ESPOIR H 6 00:28:20 07:30 7.99
20 2513 BASTIEN PONCELET ESPOIR H 7 00:29:01 07:41 7.80
21 2556 CAROLINE DEWART SENIOR D 2 00:29:06 07:43 7.78
22 2539 LILIAN BROQUELAIRE ESPOIR H 8 00:30:01 07:57 7.54
23 2533 MARIE HEINEN ESPOIR D 5 00:30:36 08:07 7.40
24 2534 CLARA PAULUS ESPOIR D 6 00:30:45 08:09 7.36
25 2559 SACHA NETTEN ESPOIR H 9 00:30:50 08:10 7.34
26 2563 THIERRY NETTEN VETERAN 1 2 00:30:50 08:10 7.34
27 2526 ROBIN PAULUS ESPOIR H 10 00:31:39 08:23 7.15
28 2532 GUILLAUME ENGLEBERT ESPOIR H 11 00:31:42 08:24 7.14
29 2514 QUENTIN PONCELET SENIOR H 4 00:31:42 08:24 7.14
30 2530 SOPHIE KALBUSCH SENIOR D 3 00:31:43 08:24 7.14
31 2512 THOMAS PONCELET ESPOIR H 12 00:31:46 08:25 7.13
32 2460 PAULINE STREEL SENIOR D 4 00:31:50 08:26 7.11
33 2561 AUDREY HALLEUX SENIOR D 5 00:31:56 08:28 7.09
34 2562 FLORENCE BILLEN AINÉE 1 3 00:32:00 08:29 7.08
35 2524 FLAVIE DECROM ESPOIR D 7 00:32:30 08:37 6.97
36 2550 OCTAVIE SIMON ESPOIR D 8 00:32:31 08:37 6.96
37 2520 MAXIME JANSSEN ESPOIR H 13 00:32:48 08:42 6.90
38 2560 LEA PAPP ESPOIR D 9 00:32:52 08:43 6.89
39 2548 SEVERINE KINET AINÉE 1 4 00:33:09 08:47 6.83
40 2547 THIERRY BODEN VETERAN 1 3 00:33:10 08:47 6.83
41 2503 TAO LIBERT ESPOIR H 14 00:33:18 08:49 6.80
42 2529 ANTOINE BODART ESPOIR H 15 00:33:28 08:52 6.77
43 2540 REMY BROQUELAIRE ESPOIR H 16 00:33:28 08:52 6.77
44 2543 ALINE GODINAS SENIOR D 6 00:33:54 08:59 6.68
45 2557 BEATRICE BOVE AINÉE 1 5 00:34:13 09:04 6.62
46 2507 NOE PAULUS ESPOIR H 17 00:34:13 09:04 6.62
47 2546 LENAIE BOVY ESPOIR H 18 00:34:16 09:05 6.61
48 2538 EMMANUELLE COP SENIOR D 7 00:34:57 09:16 6.48
49 2545 CHARLOTTE JAA ESPOIR D 10 00:35:01 09:17 6.47